sensor_id;sensor_type;location;lat;lon;timestamp;pressure;altitude;pressure_sealevel;temperature;humidity
20825;BME280;10573;50.936;6.978;2023-07-22T00:01:05;101051.31;;;17.35;52.64
20825;BME280;10573;50.936;6.978;2023-07-22T00:03:31;101045.47;;;17.30;52.33
20825;BME280;10573;50.936;6.978;2023-07-22T00:06:22;101044.72;;;17.36;52.73
20825;BME280;10573;50.936;6.978;2023-07-22T00:08:49;101039.09;;;17.30;52.82
20825;BME280;10573;50.936;6.978;2023-07-22T00:11:14;101046.88;;;17.26;53.02
20825;BME280;10573;50.936;6.978;2023-07-22T00:13:40;101046.19;;;17.24;53.17
20825;BME280;10573;50.936;6.978;2023-07-22T00:16:05;101046.84;;;17.34;52.71
20825;BME280;10573;50.936;6.978;2023-07-22T00:18:33;101044.78;;;17.28;53.05
20825;BME280;10573;50.936;6.978;2023-07-22T00:20:59;101047.47;;;17.13;53.38
20825;BME280;10573;50.936;6.978;2023-07-22T00:23:24;101052.38;;;17.03;53.54
20825;BME280;10573;50.936;6.978;2023-07-22T00:25:50;101039.66;;;17.02;53.86
20825;BME280;10573;50.936;6.978;2023-07-22T00:28:16;101040.81;;;17.07;53.69
20825;BME280;10573;50.936;6.978;2023-07-22T00:30:42;101040.16;;;16.97;54.45
20825;BME280;10573;50.936;6.978;2023-07-22T00:33:08;101038.44;;;17.04;54.57
20825;BME280;10573;50.936;6.978;2023-07-22T00:35:34;101042.59;;;16.92;54.91
20825;BME280;10573;50.936;6.978;2023-07-22T00:38:02;101046.38;;;16.99;53.87
20825;BME280;10573;50.936;6.978;2023-07-22T00:40:29;101041.59;;;16.85;55.14
20825;BME280;10573;50.936;6.978;2023-07-22T00:42:57;101042.97;;;16.81;55.22
20825;BME280;10573;50.936;6.978;2023-07-22T00:45:24;101048.84;;;16.77;55.46
20825;BME280;10573;50.936;6.978;2023-07-22T00:47:49;101048.56;;;16.64;56.08
20825;BME280;10573;50.936;6.978;2023-07-22T00:50:15;101043.81;;;16.41;56.33
20825;BME280;10573;50.936;6.978;2023-07-22T00:52:41;101048.31;;;16.42;56.59
20825;BME280;10573;50.936;6.978;2023-07-22T00:55:07;101049.38;;;16.25;57.48
20825;BME280;10573;50.936;6.978;2023-07-22T00:57:32;101044.94;;;16.16;57.64
20825;BME280;10573;50.936;6.978;2023-07-22T00:59:58;101043.19;;;16.23;57.87
20825;BME280;10573;50.936;6.978;2023-07-22T01:02:24;101044.88;;;16.32;57.74
20825;BME280;10573;50.936;6.978;2023-07-22T01:04:50;101048.34;;;16.18;58.23
20825;BME280;10573;50.936;6.978;2023-07-22T01:07:17;101041.63;;;16.20;57.96
20825;BME280;10573;50.936;6.978;2023-07-22T01:09:43;101045.09;;;16.22;58.16
20825;BME280;10573;50.936;6.978;2023-07-22T01:12:09;101037.88;;;16.21;57.92
20825;BME280;10573;50.936;6.978;2023-07-22T01:14:41;101041.78;;;16.27;57.88
20825;BME280;10573;50.936;6.978;2023-07-22T01:17:08;101035.47;;;16.10;58.16
20825;BME280;10573;50.936;6.978;2023-07-22T01:19:35;101039.97;;;16.03;58.65
20825;BME280;10573;50.936;6.978;2023-07-22T01:22:04;101028.44;;;15.99;58.97
20825;BME280;10573;50.936;6.978;2023-07-22T01:24:31;101039.47;;;15.83;59.29
20825;BME280;10573;50.936;6.978;2023-07-22T01:26:57;101039.44;;;15.74;59.58
20825;BME280;10573;50.936;6.978;2023-07-22T01:29:23;101039.78;;;15.80;59.61
20825;BME280;10573;50.936;6.978;2023-07-22T01:31:50;101031.91;;;15.76;59.88
20825;BME280;10573;50.936;6.978;2023-07-22T01:34:16;101033.94;;;15.74;60.00
20825;BME280;10573;50.936;6.978;2023-07-22T01:36:42;101041.16;;;15.67;60.07
20825;BME280;10573;50.936;6.978;2023-07-22T01:39:08;101037.03;;;15.55;60.32
20825;BME280;10573;50.936;6.978;2023-07-22T01:41:34;101038.41;;;15.59;60.43
20825;BME280;10573;50.936;6.978;2023-07-22T01:43:59;101035.34;;;15.62;60.31
20825;BME280;10573;50.936;6.978;2023-07-22T01:46:25;101034.97;;;15.65;60.08
20825;BME280;10573;50.936;6.978;2023-07-22T01:48:50;101034.97;;;15.57;60.50
20825;BME280;10573;50.936;6.978;2023-07-22T01:51:16;101030.50;;;15.64;60.12
20825;BME280;10573;50.936;6.978;2023-07-22T01:53:41;101034.44;;;15.53;60.40
20825;BME280;10573;50.936;6.978;2023-07-22T01:56:07;101030.50;;;15.48;60.92
20825;BME280;10573;50.936;6.978;2023-07-22T01:58:32;101026.38;;;15.52;61.03
20825;BME280;10573;50.936;6.978;2023-07-22T02:00:58;101028.97;;;15.53;61.03
20825;BME280;10573;50.936;6.978;2023-07-22T02:03:23;101021.78;;;15.69;60.61
20825;BME280;10573;50.936;6.978;2023-07-22T02:05:49;101019.72;;;15.87;60.20
20825;BME280;10573;50.936;6.978;2023-07-22T02:08:14;101021.94;;;15.92;60.41
20825;BME280;10573;50.936;6.978;2023-07-22T02:10:39;101018.38;;;15.83;59.95
20825;BME280;10573;50.936;6.978;2023-07-22T02:13:05;101020.19;;;15.99;59.88
20825;BME280;10573;50.936;6.978;2023-07-22T02:15:32;101014.41;;;15.94;60.06
20825;BME280;10573;50.936;6.978;2023-07-22T02:17:58;101008.53;;;15.97;59.78
20825;BME280;10573;50.936;6.978;2023-07-22T02:20:24;101018.50;;;16.06;59.64
20825;BME280;10573;50.936;6.978;2023-07-22T02:22:51;101018.50;;;16.06;59.36
20825;BME280;10573;50.936;6.978;2023-07-22T02:25:17;101013.66;;;16.08;59.40
20825;BME280;10573;50.936;6.978;2023-07-22T02:27:43;101023.31;;;15.96;59.69
20825;BME280;10573;50.936;6.978;2023-07-22T02:30:09;101017.78;;;16.04;60.06
20825;BME280;10573;50.936;6.978;2023-07-22T02:32:39;101014.88;;;15.98;59.84
20825;BME280;10573;50.936;6.978;2023-07-22T02:35:08;101019.00;;;15.77;60.46
20825;BME280;10573;50.936;6.978;2023-07-22T02:37:36;101026.72;;;15.73;60.91
20825;BME280;10573;50.936;6.978;2023-07-22T02:40:02;101030.84;;;15.69;61.30
20825;BME280;10573;50.936;6.978;2023-07-22T02:42:34;101024.00;;;15.65;61.26
20825;BME280;10573;50.936;6.978;2023-07-22T02:45:01;101023.13;;;15.73;61.09
20825;BME280;10573;50.936;6.978;2023-07-22T02:47:26;101030.19;;;15.75;61.21
20825;BME280;10573;50.936;6.978;2023-07-22T02:49:51;101025.03;;;15.56;62.28
20825;BME280;10573;50.936;6.978;2023-07-22T02:52:17;101025.38;;;15.53;62.44
20825;BME280;10573;50.936;6.978;2023-07-22T02:55:07;101024.50;;;15.52;62.69
20825;BME280;10573;50.936;6.978;2023-07-22T02:57:33;101035.16;;;15.47;63.39
20825;BME280;10573;50.936;6.978;2023-07-22T02:59:58;101030.16;;;15.51;63.45
20825;BME280;10573;50.936;6.978;2023-07-22T03:02:24;101035.81;;;15.41;63.96
20825;BME280;10573;50.936;6.978;2023-07-22T03:04:49;101040.78;;;15.37;64.37
20825;BME280;10573;50.936;6.978;2023-07-22T03:07:15;101034.63;;;15.43;63.80
20825;BME280;10573;50.936;6.978;2023-07-22T03:09:40;101033.09;;;15.41;63.88
20825;BME280;10573;50.936;6.978;2023-07-22T03:12:06;101027.75;;;15.39;64.00
20825;BME280;10573;50.936;6.978;2023-07-22T03:14:31;101030.16;;;15.51;64.07
20825;BME280;10573;50.936;6.978;2023-07-22T03:17:02;101033.25;;;15.39;64.18
20825;BME280;10573;50.936;6.978;2023-07-22T03:19:29;101026.88;;;15.39;64.29
20825;BME280;10573;50.936;6.978;2023-07-22T03:21:54;101022.44;;;15.38;64.22
20825;BME280;10573;50.936;6.978;2023-07-22T03:24:20;101021.06;;;15.42;64.10
20825;BME280;10573;50.936;6.978;2023-07-22T03:26:45;101028.44;;;15.41;64.34
20825;BME280;10573;50.936;6.978;2023-07-22T03:29:11;101025.84;;;15.32;64.67
20825;BME280;10573;50.936;6.978;2023-07-22T03:31:36;101030.34;;;15.33;64.54
20825;BME280;10573;50.936;6.978;2023-07-22T03:34:01;101021.75;;;15.27;64.59
20825;BME280;10573;50.936;6.978;2023-07-22T03:36:27;101024.31;;;15.29;64.70
20825;BME280;10573;50.936;6.978;2023-07-22T03:38:52;101022.94;;;15.33;64.79
20825;BME280;10573;50.936;6.978;2023-07-22T03:41:18;101020.19;;;15.33;64.62
20825;BME280;10573;50.936;6.978;2023-07-22T03:43:43;101026.38;;;15.27;65.35
20825;BME280;10573;50.936;6.978;2023-07-22T03:46:09;101029.13;;;15.35;65.20
20825;BME280;10573;50.936;6.978;2023-07-22T03:48:34;101029.50;;;15.40;64.95
20825;BME280;10573;50.936;6.978;2023-07-22T03:51:00;101035.28;;;15.37;65.34
20825;BME280;10573;50.936;6.978;2023-07-22T03:53:25;101033.25;;;15.39;65.14
20825;BME280;10573;50.936;6.978;2023-07-22T03:55:51;101034.97;;;15.40;65.17
20825;BME280;10573;50.936;6.978;2023-07-22T03:58:16;101037.88;;;15.39;65.35
20825;BME280;10573;50.936;6.978;2023-07-22T04:00:42;101038.75;;;15.39;65.31
20825;BME280;10573;50.936;6.978;2023-07-22T04:03:07;101042.34;;;15.40;65.43
20825;BME280;10573;50.936;6.978;2023-07-22T04:05:32;101036.50;;;15.35;65.61
20825;BME280;10573;50.936;6.978;2023-07-22T04:07:58;101040.97;;;15.36;65.62
20825;BME280;10573;50.936;6.978;2023-07-22T04:10:23;101035.28;;;15.37;65.65
20825;BME280;10573;50.936;6.978;2023-07-22T04:12:49;101036.00;;;15.39;65.71
20825;BME280;10573;50.936;6.978;2023-07-22T04:15:14;101037.53;;;15.34;65.99
20825;BME280;10573;50.936;6.978;2023-07-22T04:17:40;101022.41;;;15.21;66.47
20825;BME280;10573;50.936;6.978;2023-07-22T04:20:06;101030.31;;;15.24;66.79
20825;BME280;10573;50.936;6.978;2023-07-22T04:22:33;101030.81;;;15.28;66.76
20825;BME280;10573;50.936;6.978;2023-07-22T04:24:59;101036.66;;;15.25;66.84
20825;BME280;10573;50.936;6.978;2023-07-22T04:27:26;101036.00;;;15.23;67.05
20825;BME280;10573;50.936;6.978;2023-07-22T04:29:52;101034.25;;;15.22;67.09
20825;BME280;10573;50.936;6.978;2023-07-22T04:32:18;101043.03;;;15.25;66.88
20825;BME280;10573;50.936;6.978;2023-07-22T04:34:43;101043.88;;;15.26;67.29
20825;BME280;10573;50.936;6.978;2023-07-22T04:37:09;101036.31;;;15.28;67.15
20825;BME280;10573;50.936;6.978;2023-07-22T04:39:34;101047.28;;;15.28;67.47
20825;BME280;10573;50.936;6.978;2023-07-22T04:42:00;101040.78;;;15.37;67.29
20825;BME280;10573;50.936;6.978;2023-07-22T04:44:26;101038.03;;;15.29;67.56
20825;BME280;10573;50.936;6.978;2023-07-22T04:46:52;101044.59;;;15.36;67.41
20825;BME280;10573;50.936;6.978;2023-07-22T04:49:17;101035.28;;;15.37;67.21
20825;BME280;10573;50.936;6.978;2023-07-22T04:51:45;101043.22;;;15.32;67.43
20825;BME280;10573;50.936;6.978;2023-07-22T04:54:11;101044.91;;;15.33;67.29
20825;BME280;10573;50.936;6.978;2023-07-22T04:56:36;101041.13;;;15.42;67.34
20825;BME280;10573;50.936;6.978;2023-07-22T04:59:03;101046.97;;;15.39;67.46
20825;BME280;10573;50.936;6.978;2023-07-22T05:01:29;101041.13;;;15.34;67.59
20825;BME280;10573;50.936;6.978;2023-07-22T05:03:54;101046.28;;;15.46;67.09
20825;BME280;10573;50.936;6.978;2023-07-22T05:06:21;101040.78;;;15.37;67.32
20825;BME280;10573;50.936;6.978;2023-07-22T05:08:46;101043.03;;;15.42;66.95
20825;BME280;10573;50.936;6.978;2023-07-22T05:11:11;101041.84;;;15.44;67.18
20825;BME280;10573;50.936;6.978;2023-07-22T05:13:37;101039.78;;;15.47;66.99
20825;BME280;10573;50.936;6.978;2023-07-22T05:16:02;101041.31;;;15.57;67.23
20825;BME280;10573;50.936;6.978;2023-07-22T05:18:28;101042.84;;;15.68;66.67
20825;BME280;10573;50.936;6.978;2023-07-22T05:20:53;101038.75;;;15.72;66.49
20825;BME280;10573;50.936;6.978;2023-07-22T05:23:19;101042.19;;;15.74;66.41
20825;BME280;10573;50.936;6.978;2023-07-22T05:25:50;101041.88;;;15.94;65.71
20825;BME280;10573;50.936;6.978;2023-07-22T05:28:16;101036.69;;;15.99;65.69
20825;BME280;10573;50.936;6.978;2023-07-22T05:30:42;101038.75;;;16.05;65.07
20825;BME280;10573;50.936;6.978;2023-07-22T05:33:07;101034.66;;;15.93;64.93
20825;BME280;10573;50.936;6.978;2023-07-22T05:35:32;101045.63;;;16.09;64.91
20825;BME280;10573;50.936;6.978;2023-07-22T05:37:59;101053.53;;;16.04;65.18
20825;BME280;10573;50.936;6.978;2023-07-22T05:40:25;101051.78;;;16.03;65.39
20825;BME280;10573;50.936;6.978;2023-07-22T05:42:51;101059.19;;;16.03;65.09
20825;BME280;10573;50.936;6.978;2023-07-22T05:45:16;101057.13;;;15.97;65.50
20825;BME280;10573;50.936;6.978;2023-07-22T05:47:42;101058.34;;;16.10;65.07
20825;BME280;10573;50.936;6.978;2023-07-22T05:50:07;101054.34;;;16.21;64.83
20825;BME280;10573;50.936;6.978;2023-07-22T05:52:33;101039.22;;;16.25;64.87
20825;BME280;10573;50.936;6.978;2023-07-22T05:54:58;101049.69;;;16.38;64.26
20825;BME280;10573;50.936;6.978;2023-07-22T05:57:24;101044.16;;;16.47;64.23
20825;BME280;10573;50.936;6.978;2023-07-22T05:59:49;101045.13;;;16.62;63.37
20825;BME280;10573;50.936;6.978;2023-07-22T06:02:17;101059.56;;;16.64;63.41
20825;BME280;10573;50.936;6.978;2023-07-22T06:04:43;101057.00;;;16.54;63.41
20825;BME280;10573;50.936;6.978;2023-07-22T06:07:09;101053.72;;;16.59;63.44
20825;BME280;10573;50.936;6.978;2023-07-22T06:09:34;101056.69;;;16.49;63.78
20825;BME280;10573;50.936;6.978;2023-07-22T06:12:01;101044.78;;;16.65;63.43
20825;BME280;10573;50.936;6.978;2023-07-22T06:14:26;101050.28;;;16.57;63.52
20825;BME280;10573;50.936;6.978;2023-07-22T06:16:52;101045.72;;;16.81;63.18
20825;BME280;10573;50.936;6.978;2023-07-22T06:19:18;101039.91;;;16.75;62.76
20825;BME280;10573;50.936;6.978;2023-07-22T06:21:43;101045.34;;;16.92;62.20
20825;BME280;10573;50.936;6.978;2023-07-22T06:24:09;101050.84;;;16.92;61.89
20825;BME280;10573;50.936;6.978;2023-07-22T06:26:35;101054.16;;;16.79;62.62
20825;BME280;10573;50.936;6.978;2023-07-22T06:29:02;101043.97;;;16.88;62.44
20825;BME280;10573;50.936;6.978;2023-07-22T06:31:27;101051.75;;;17.16;61.76
20825;BME280;10573;50.936;6.978;2023-07-22T06:33:57;101054.97;;;17.51;60.63
20825;BME280;10573;50.936;6.978;2023-07-22T06:36:22;101052.47;;;17.64;60.33
20825;BME280;10573;50.936;6.978;2023-07-22T06:39:06;101045.59;;;18.06;58.60
20825;BME280;10573;50.936;6.978;2023-07-22T06:41:52;101041.31;;;18.19;56.80
20825;BME280;10573;50.936;6.978;2023-07-22T06:44:38;101040.00;;;18.30;56.04
20825;BME280;10573;50.936;6.978;2023-07-22T06:47:24;101038.84;;;18.54;54.02
20825;BME280;10573;50.936;6.978;2023-07-22T06:50:09;101043.97;;;18.57;55.52
20825;BME280;10573;50.936;6.978;2023-07-22T06:52:55;101037.38;;;18.88;53.24
20825;BME280;10573;50.936;6.978;2023-07-22T06:55:53;101043.00;;;18.94;53.30
20825;BME280;10573;50.936;6.978;2023-07-22T06:58:39;101043.22;;;18.93;53.23
20825;BME280;10573;50.936;6.978;2023-07-22T07:01:24;101045.09;;;19.07;52.75
20825;BME280;10573;50.936;6.978;2023-07-22T07:04:10;101048.72;;;18.78;53.46
20825;BME280;10573;50.936;6.978;2023-07-22T07:06:56;101043.38;;;19.06;51.56
20825;BME280;10573;50.936;6.978;2023-07-22T07:09:42;101040.44;;;19.29;51.23
20825;BME280;10573;50.936;6.978;2023-07-22T07:12:28;101038.28;;;19.47;50.99
20825;BME280;10573;50.936;6.978;2023-07-22T07:15:14;101043.19;;;19.29;49.60
20825;BME280;10573;50.936;6.978;2023-07-22T07:17:59;101044.72;;;19.54;49.08
20825;BME280;10573;50.936;6.978;2023-07-22T07:20:45;101039.31;;;19.67;49.74
20825;BME280;10573;50.936;6.978;2023-07-22T07:23:31;101038.78;;;19.78;48.33
20825;BME280;10573;50.936;6.978;2023-07-22T07:26:17;101034.03;;;19.94;47.64
20825;BME280;10573;50.936;6.978;2023-07-22T07:29:03;101029.13;;;20.18;46.97
20825;BME280;10573;50.936;6.978;2023-07-22T07:31:48;101032.47;;;20.06;47.38
20825;BME280;10573;50.936;6.978;2023-07-22T07:34:34;101035.03;;;20.08;47.08
20825;BME280;10573;50.936;6.978;2023-07-22T07:37:20;101035.91;;;20.15;46.78
20825;BME280;10573;50.936;6.978;2023-07-22T07:40:08;101021.72;;;20.25;46.82
20825;BME280;10573;50.936;6.978;2023-07-22T07:42:54;101023.69;;;20.31;46.56
20825;BME280;10573;50.936;6.978;2023-07-22T07:45:40;101028.91;;;20.19;46.41
20825;BME280;10573;50.936;6.978;2023-07-22T07:48:26;101028.41;;;20.37;46.25
20825;BME280;10573;50.936;6.978;2023-07-22T07:51:15;101024.56;;;20.38;45.70
20825;BME280;10573;50.936;6.978;2023-07-22T07:54:02;101034.38;;;20.76;44.39
20825;BME280;10573;50.936;6.978;2023-07-22T07:56:49;101033.69;;;20.67;44.51
20825;BME280;10573;50.936;6.978;2023-07-22T07:59:35;101036.72;;;20.72;44.89
20825;BME280;10573;50.936;6.978;2023-07-22T08:02:21;101032.59;;;21.03;44.67
20825;BME280;10573;50.936;6.978;2023-07-22T08:05:08;101024.09;;;21.11;44.31
20825;BME280;10573;50.936;6.978;2023-07-22T08:07:53;101027.72;;;21.25;43.73
20825;BME280;10573;50.936;6.978;2023-07-22T08:10:40;101025.78;;;21.06;44.17
20825;BME280;10573;50.936;6.978;2023-07-22T08:13:26;101022.06;;;21.54;43.55
20825;BME280;10573;50.936;6.978;2023-07-22T08:16:13;101018.88;;;21.64;43.74
20825;BME280;10573;50.936;6.978;2023-07-22T08:18:59;101012.47;;;21.90;42.54
20825;BME280;10573;50.936;6.978;2023-07-22T08:21:44;101017.13;;;22.23;41.87
20825;BME280;10573;50.936;6.978;2023-07-22T08:24:30;101010.50;;;22.31;41.29
20825;BME280;10573;50.936;6.978;2023-07-22T08:27:16;101005.84;;;22.18;41.61
20825;BME280;10573;50.936;6.978;2023-07-22T08:30:01;100998.56;;;22.23;41.35
20825;BME280;10573;50.936;6.978;2023-07-22T08:32:47;100998.91;;;22.60;41.07
20825;BME280;10573;50.936;6.978;2023-07-22T08:35:36;101004.09;;;22.37;40.24
20825;BME280;10573;50.936;6.978;2023-07-22T08:38:22;101000.69;;;22.41;39.94
20825;BME280;10573;50.936;6.978;2023-07-22T08:41:07;100992.88;;;22.70;38.86
20825;BME280;10573;50.936;6.978;2023-07-22T08:43:54;100995.19;;;22.80;39.42
20825;BME280;10573;50.936;6.978;2023-07-22T08:46:42;100997.22;;;22.53;39.38
20825;BME280;10573;50.936;6.978;2023-07-22T08:49:28;100997.00;;;23.06;39.18
20825;BME280;10573;50.936;6.978;2023-07-22T08:52:15;100984.00;;;23.64;37.86
20825;BME280;10573;50.936;6.978;2023-07-22T08:55:01;100987.06;;;23.81;37.89
20825;BME280;10573;50.936;6.978;2023-07-22T08:57:48;100998.69;;;23.71;36.87
20825;BME280;10573;50.936;6.978;2023-07-22T09:00:34;100995.41;;;23.56;37.33
20825;BME280;10573;50.936;6.978;2023-07-22T09:03:20;100985.88;;;23.45;37.47
20825;BME280;10573;50.936;6.978;2023-07-22T09:06:06;100997.31;;;23.30;37.59
20825;BME280;10573;50.936;6.978;2023-07-22T09:08:52;100985.50;;;22.96;38.35
20825;BME280;10573;50.936;6.978;2023-07-22T09:11:39;100981.72;;;22.84;38.18
20825;BME280;10573;50.936;6.978;2023-07-22T09:14:25;100989.00;;;22.78;38.04
20825;BME280;10573;50.936;6.978;2023-07-22T09:17:11;100985.06;;;22.99;37.97
20825;BME280;10573;50.936;6.978;2023-07-22T09:19:56;100983.28;;;23.11;38.34
20825;BME280;10573;50.936;6.978;2023-07-22T09:22:46;100983.09;;;23.70;37.29
20825;BME280;10573;50.936;6.978;2023-07-22T09:25:32;100982.91;;;24.16;36.66
20825;BME280;10573;50.936;6.978;2023-07-22T09:28:18;100980.28;;;24.39;35.66
20825;BME280;10573;50.936;6.978;2023-07-22T09:31:04;100962.69;;;24.94;33.97
20825;BME280;10573;50.936;6.978;2023-07-22T09:33:50;100964.59;;;24.82;34.40
20825;BME280;10573;50.936;6.978;2023-07-22T09:36:53;100961.19;;;25.10;34.20
20825;BME280;10573;50.936;6.978;2023-07-22T09:39:46;100958.59;;;25.39;33.52
20825;BME280;10573;50.936;6.978;2023-07-22T09:42:32;100960.38;;;25.88;33.33
20825;BME280;10573;50.936;6.978;2023-07-22T09:45:19;100950.13;;;26.41;32.32
20825;BME280;10573;50.936;6.978;2023-07-22T09:48:08;100964.38;;;26.39;32.12
20825;BME280;10573;50.936;6.978;2023-07-22T09:50:58;100958.59;;;25.39;32.79
20825;BME280;10573;50.936;6.978;2023-07-22T09:53:45;100968.91;;;24.41;34.25
20825;BME280;10573;50.936;6.978;2023-07-22T09:56:32;100961.81;;;24.63;33.96
20825;BME280;10573;50.936;6.978;2023-07-22T09:59:18;100963.56;;;24.58;33.81
20825;BME280;10573;50.936;6.978;2023-07-22T10:02:06;100961.56;;;24.84;33.27
20825;BME280;10573;50.936;6.978;2023-07-22T10:04:54;100962.94;;;25.23;33.18
20825;BME280;10573;50.936;6.978;2023-07-22T10:07:45;100951.16;;;25.99;31.93
20825;BME280;10573;50.936;6.978;2023-07-22T10:10:35;100955.97;;;26.39;31.09
20825;BME280;10573;50.936;6.978;2023-07-22T10:13:24;100941.50;;;26.42;29.91
20825;BME280;10573;50.936;6.978;2023-07-22T10:16:10;100934.00;;;26.43;28.73
20825;BME280;10573;50.936;6.978;2023-07-22T10:18:58;100932.09;;;26.72;28.85
20825;BME280;10573;50.936;6.978;2023-07-22T10:21:44;100925.69;;;27.86;27.44
20825;BME280;10573;50.936;6.978;2023-07-22T10:24:31;100916.38;;;27.46;27.14
20825;BME280;10573;50.936;6.978;2023-07-22T10:27:17;100920.91;;;28.42;26.36
20825;BME280;10573;50.936;6.978;2023-07-22T10:30:03;100913.16;;;28.99;24.87
20825;BME280;10573;50.936;6.978;2023-07-22T10:32:51;100910.84;;;28.46;25.74
20825;BME280;10573;50.936;6.978;2023-07-22T10:35:42;100905.06;;;27.92;26.42
20825;BME280;10573;50.936;6.978;2023-07-22T10:38:30;100909.91;;;27.79;26.74
20825;BME280;10573;50.936;6.978;2023-07-22T10:41:17;100913.75;;;27.22;26.91
20825;BME280;10573;50.936;6.978;2023-07-22T10:44:06;100920.00;;;27.29;26.72
20825;BME280;10573;50.936;6.978;2023-07-22T10:46:58;100910.44;;;27.59;26.44
20825;BME280;10573;50.936;6.978;2023-07-22T10:49:47;100912.88;;;28.29;25.95
20825;BME280;10573;50.936;6.978;2023-07-22T10:52:41;100905.72;;;28.60;25.93
20825;BME280;10573;50.936;6.978;2023-07-22T10:55:28;100895.22;;;29.65;24.67
20825;BME280;10573;50.936;6.978;2023-07-22T10:58:13;100888.94;;;29.53;24.54
20825;BME280;10573;50.936;6.978;2023-07-22T11:04:14;100893.38;;;28.84;24.94
20825;BME280;10573;50.936;6.978;2023-07-22T11:07:06;100906.25;;;28.35;25.58
20825;BME280;10573;50.936;6.978;2023-07-22T11:09:54;100906.75;;;27.93;25.06
20825;BME280;10573;50.936;6.978;2023-07-22T11:12:42;100894.38;;;27.04;26.66
20825;BME280;10573;50.936;6.978;2023-07-22T11:15:29;100884.22;;;27.83;25.73
20825;BME280;10573;50.936;6.978;2023-07-22T11:18:15;100877.84;;;28.04;25.91
20825;BME280;10573;50.936;6.978;2023-07-22T11:21:00;100876.59;;;27.27;26.31
20825;BME280;10573;50.936;6.978;2023-07-22T11:23:46;100879.16;;;27.62;26.97
20825;BME280;10573;50.936;6.978;2023-07-22T11:26:33;100876.28;;;27.57;26.02
20825;BME280;10573;50.936;6.978;2023-07-22T11:29:18;100880.34;;;27.50;26.04
20825;BME280;10573;50.936;6.978;2023-07-22T11:32:05;100862.97;;;27.48;25.97
20825;BME280;10573;50.936;6.978;2023-07-22T11:34:51;100860.84;;;27.21;25.97
20825;BME280;10573;50.936;6.978;2023-07-22T11:37:38;100860.50;;;27.34;26.54
20825;BME280;10573;50.936;6.978;2023-07-22T11:40:32;100864.38;;;26.99;27.28
20825;BME280;10573;50.936;6.978;2023-07-22T11:43:20;100860.50;;;27.68;26.56
20825;BME280;10573;50.936;6.978;2023-07-22T11:46:06;100863.31;;;28.07;25.90
20825;BME280;10573;50.936;6.978;2023-07-22T11:48:53;100850.19;;;27.91;25.29
20825;BME280;10573;50.936;6.978;2023-07-22T11:51:42;100845.16;;;27.54;25.64
20825;BME280;10573;50.936;6.978;2023-07-22T11:54:29;100831.34;;;26.96;26.28
20825;BME280;10573;50.936;6.978;2023-07-22T11:57:20;100840.91;;;26.83;26.74
20825;BME280;10573;50.936;6.978;2023-07-22T12:00:08;100838.81;;;27.07;26.33
20825;BME280;10573;50.936;6.978;2023-07-22T12:02:54;100841.06;;;26.76;27.22
20825;BME280;10573;50.936;6.978;2023-07-22T12:05:42;100830.53;;;28.57;26.05
20825;BME280;10573;50.936;6.978;2023-07-22T12:08:28;100827.56;;;28.64;25.57
20825;BME280;10573;50.936;6.978;2023-07-22T12:11:22;100814.25;;;28.54;24.68
20825;BME280;10573;50.936;6.978;2023-07-22T12:14:12;100841.28;;;28.16;25.35
20825;BME280;10573;50.936;6.978;2023-07-22T12:16:58;100820.34;;;28.46;25.01
20825;BME280;10573;50.936;6.978;2023-07-22T12:19:52;100811.59;;;29.29;24.18
20825;BME280;10573;50.936;6.978;2023-07-22T12:22:38;100806.16;;;29.55;22.90
20825;BME280;10573;50.936;6.978;2023-07-22T12:25:24;100813.81;;;29.27;22.86
20825;BME280;10573;50.936;6.978;2023-07-22T12:28:10;100820.00;;;27.98;24.74
20825;BME280;10573;50.936;6.978;2023-07-22T12:30:56;100823.13;;;27.57;24.97
20825;BME280;10573;50.936;6.978;2023-07-22T12:33:44;100809.22;;;28.29;24.39
20825;BME280;10573;50.936;6.978;2023-07-22T12:36:31;100816.63;;;29.27;22.68
20825;BME280;10573;50.936;6.978;2023-07-22T12:39:16;100796.84;;;29.50;22.96
20825;BME280;10573;50.936;6.978;2023-07-22T12:42:02;100801.63;;;29.97;22.20
20825;BME280;10573;50.936;6.978;2023-07-22T12:44:48;100800.38;;;29.77;22.16
20825;BME280;10573;50.936;6.978;2023-07-22T12:47:34;100802.25;;;30.20;21.50
20825;BME280;10573;50.936;6.978;2023-07-22T12:50:20;100790.06;;;31.19;20.90
20825;BME280;10573;50.936;6.978;2023-07-22T12:53:06;100790.69;;;32.02;20.01
20825;BME280;10573;50.936;6.978;2023-07-22T12:55:51;100789.47;;;31.11;20.90
20825;BME280;10573;50.936;6.978;2023-07-22T12:58:37;100787.78;;;31.36;20.27
20825;BME280;10573;50.936;6.978;2023-07-22T13:01:23;100784.44;;;31.08;20.42
20825;BME280;10573;50.936;6.978;2023-07-22T13:04:08;100783.00;;;30.70;21.29
20825;BME280;10573;50.936;6.978;2023-07-22T13:06:54;100797.03;;;31.52;20.25
20825;BME280;10573;50.936;6.978;2023-07-22T13:09:42;100799.88;;;31.37;20.41
20825;BME280;10573;50.936;6.978;2023-07-22T13:12:29;100789.47;;;30.91;20.78
20825;BME280;10573;50.936;6.978;2023-07-22T13:15:14;100801.28;;;31.44;20.10
20825;BME280;10573;50.936;6.978;2023-07-22T13:18:00;100799.56;;;31.49;19.85
20825;BME280;10573;50.936;6.978;2023-07-22T13:20:46;100799.16;;;31.96;20.23
20825;BME280;10573;50.936;6.978;2023-07-22T13:23:32;100786.00;;;31.82;20.08
20825;BME280;10573;50.936;6.978;2023-07-22T13:26:18;100788.22;;;32.45;20.31
20825;BME280;10573;50.936;6.978;2023-07-22T13:29:04;100798.38;;;31.86;20.49
20825;BME280;10573;50.936;6.978;2023-07-22T13:31:49;100780.88;;;31.89;20.33
20825;BME280;10573;50.936;6.978;2023-07-22T13:34:35;100785.69;;;31.88;20.88
20825;BME280;10573;50.936;6.978;2023-07-22T13:37:21;100773.38;;;31.63;20.61
20825;BME280;10573;50.936;6.978;2023-07-22T13:40:07;100767.81;;;32.58;20.30